Time;durP1;ratioP1;P1;durP2;ratioP2;P2;SDS_P1;SDS_P2;PMS_P1;PMS_P2;Temp;Humidity;BMP_temperature;BMP_pressure;BME280_temperature;BME280_humidity;BME280_pressure;Samples;Min_cycle;Max_cycle;Signal;HPM_P1;HPM_P2
2021/08/02 00:00:03;;;;;;;3.50;3.15;;;;;;;;;;5074931;28;20504;-80
2021/08/02 00:02:50;;;;;;;4.18;2.75;;;;;;;;;;5075606;28;20044;-80
2021/08/02 00:05:17;;;;;;;3.15;2.70;;;;;;;;;;5058349;28;20060;-80
2021/08/02 00:07:46;;;;;;;4.18;3.22;;;;;;;;;;5058413;28;20037;-80
2021/08/02 00:10:15;;;;;;;5.78;3.28;;;;;;;;;;5058208;28;20037;-81
2021/08/02 00:12:50;;;;;;;5.28;2.88;;;;;;;;;;5074476;28;20046;-80
2021/08/02 00:15:19;;;;;;;4.78;3.30;;;;;;;;;;5057224;28;20033;-81
2021/08/02 00:17:46;;;;;;;7.20;3.67;;;;;;;;;;5074632;28;20039;-80
2021/08/02 00:20:15;;;;;;;3.97;3.28;;;;;;;;;;5057419;28;20039;-80
2021/08/02 00:22:41;;;;;;;5.40;3.53;;;;;;;;;;5058727;28;20043;-81
2021/08/02 00:25:07;;;;;;;4.40;3.55;;;;;;;;;;5057939;28;20119;-80
2021/08/02 00:27:33;;;;;;;5.00;3.40;;;;;;;;;;5058053;28;20085;-80
2021/08/02 00:30:00;;;;;;;7.32;3.20;;;;;;;;;;5057870;28;20033;-80
2021/08/02 00:32:25;;;;;;;4.93;3.40;;;;;;;;;;5075417;28;20040;-81
2021/08/02 00:34:51;;;;;;;5.85;3.30;;;;;;;;;;5057522;28;20039;-81
2021/08/02 00:37:43;;;;;;;5.15;3.40;;;;;;;;;;5057357;28;20060;-81
2021/08/02 00:40:24;;;;;;;4.18;2.97;;;;;;;;;;5058279;28;20101;-80
2021/08/02 00:43:03;;;;;;;7.40;3.45;;;;;;;;;;5057840;28;20068;-81
2021/08/02 00:45:31;;;;;;;5.20;3.17;;;;;;;;;;5057462;28;20659;-81
2021/08/02 00:48:09;;;;;;;3.88;3.40;;;;;;;;;;5057757;28;20040;-80
2021/08/02 00:50:40;;;;;;;5.03;3.17;;;;;;;;;;5074477;28;20052;-81
2021/08/02 00:53:05;;;;;;;4.55;2.90;;;;;;;;;;5057541;28;20032;-80
2021/08/02 00:55:36;;;;;;;3.88;2.80;;;;;;;;;;5058016;28;20055;-81
2021/08/02 00:58:08;;;;;;;4.07;3.22;;;;;;;;;;5074328;28;20095;-81
2021/08/02 01:00:36;;;;;;;4.40;3.35;;;;;;;;;;5058406;28;20090;-81
2021/08/02 01:03:07;;;;;;;4.47;3.17;;;;;;;;;;5058226;28;20032;-81
2021/08/02 01:05:35;;;;;;;4.47;2.42;;;;;;;;;;5057801;28;20029;-81
2021/08/02 01:08:24;;;;;;;8.02;3.17;;;;;;;;;;5058391;28;20474;-81
2021/08/02 01:10:54;;;;;;;5.75;2.83;;;;;;;;;;5057747;28;20426;-81
2021/08/02 01:13:26;;;;;;;5.90;2.70;;;;;;;;;;5058982;28;20533;-81
2021/08/02 01:15:54;;;;;;;4.90;2.67;;;;;;;;;;5058442;28;20036;-81
2021/08/02 01:18:25;;;;;;;4.85;2.83;;;;;;;;;;5076242;28;20092;-81
2021/08/02 01:20:53;;;;;;;4.53;2.95;;;;;;;;;;5075238;28;20086;-81
2021/08/02 01:23:21;;;;;;;3.08;2.75;;;;;;;;;;5076622;28;20482;-81
2021/08/02 01:25:49;;;;;;;8.23;2.83;;;;;;;;;;5074571;28;20037;-81
2021/08/02 01:28:16;;;;;;;5.82;2.92;;;;;;;;;;5059292;28;20115;-81
2021/08/02 01:30:50;;;;;;;4.30;2.90;;;;;;;;;;5060605;28;20039;-81
2021/08/02 01:33:28;;;;;;;10.68;3.38;;;;;;;;;;5062737;28;20056;-81
2021/08/02 01:36:00;;;;;;;5.50;2.70;;;;;;;;;;5064183;28;20028;-81
2021/08/02 01:38:27;;;;;;;7.78;2.90;;;;;;;;;;5065812;28;20096;-81
2021/08/02 01:40:54;;;;;;;9.73;2.85;;;;;;;;;;5083005;28;20108;-81
2021/08/02 01:43:21;;;;;;;4.75;2.72;;;;;;;;;;5061785;28;20124;-81
2021/08/02 01:46:15;;;;;;;9.10;2.50;;;;;;;;;;5079073;28;20507;-81
2021/08/02 01:49:19;;;;;;;5.45;3.00;;;;;;;;;;5078834;28;20448;-81
2021/08/02 01:51:47;;;;;;;8.38;2.85;;;;;;;;;;5078595;28;20036;-80
2021/08/02 01:54:34;;;;;;;3.75;2.72;;;;;;;;;;5078948;28;20024;-80
2021/08/02 01:57:12;;;;;;;5.30;2.80;;;;;;;;;;5095649;28;20494;-81
2021/08/02 02:00:15;;;;;;;5.75;2.58;;;;;;;;;;5079137;28;20440;-81
2021/08/02 02:02:52;;;;;;;7.10;2.80;;;;;;;;;;5080082;28;20486;-81
2021/08/02 02:05:20;;;;;;;4.60;2.38;;;;;;;;;;5061891;28;20131;-81
2021/08/02 02:07:59;;;;;;;5.43;2.40;;;;;;;;;;5078962;28;20119;-81
2021/08/02 02:10:38;;;;;;;3.58;2.63;;;;;;;;;;5078230;28;20512;-81
2021/08/02 02:13:24;;;;;;;3.55;2.75;;;;;;;;;;5061895;28;20036;-81
2021/08/02 02:15:55;;;;;;;;;;;;;;;;;;5075797;28;20119;-77
2021/08/02 02:18:22;;;;;;;7.18;3.70;;;;;;;;;;5095703;28;20367;-76
2021/08/02 02:20:49;;;;;;;6.47;2.70;;;;;;;;;;5078274;28;20126;-75
2021/08/02 02:23:17;;;;;;;9.38;2.95;;;;;;;;;;5095399;28;20024;-75
2021/08/02 02:25:45;;;;;;;4.53;2.80;;;;;;;;;;5096381;28;20470;-75
2021/08/02 02:28:19;;;;;;;6.75;3.05;;;;;;;;;;5095449;28;20032;-75
2021/08/02 02:30:46;;;;;;;3.83;2.75;;;;;;;;;;5077734;28;20036;-76
2021/08/02 02:33:14;;;;;;;4.60;3.10;;;;;;;;;;5078203;28;20485;-76
2021/08/02 02:35:42;;;;;;;4.72;2.70;;;;;;;;;;5095860;28;20043;-76
2021/08/02 02:38:13;;;;;;;5.20;2.97;;;;;;;;;;5094815;28;20032;-76
2021/08/02 02:40:43;;;;;;;7.43;2.80;;;;;;;;;;5094827;28;20032;-76
2021/08/02 02:43:10;;;;;;;9.00;2.90;;;;;;;;;;5094407;28;20089;-75
2021/08/02 02:45:38;;;;;;;8.65;2.97;;;;;;;;;;5077934;28;20040;-76
2021/08/02 02:48:06;;;;;;;4.80;2.80;;;;;;;;;;5094937;28;20489;-75
2021/08/02 02:50:38;;;;;;;8.27;3.13;;;;;;;;;;5078083;28;20081;-75
2021/08/02 02:53:06;;;;;;;7.95;3.17;;;;;;;;;;5079664;28;20040;-78
2021/08/02 02:55:34;;;;;;;7.22;3.15;;;;;;;;;;5095539;28;20118;-76
2021/08/02 02:58:01;;;;;;;9.40;3.33;;;;;;;;;;5094406;28;20067;-76
2021/08/02 03:00:29;;;;;;;4.82;2.83;;;;;;;;;;5078833;28;20032;-76
2021/08/02 03:02:58;;;;;;;7.07;3.13;;;;;;;;;;5095206;28;20081;-76
2021/08/02 03:05:27;;;;;;;9.77;3.25;;;;;;;;;;5077486;28;20024;-76
2021/08/02 03:07:57;;;;;;;6.93;3.38;;;;;;;;;;5096014;28;20032;-76
2021/08/02 03:10:26;;;;;;;5.57;3.38;;;;;;;;;;5095588;28;20443;-77
2021/08/02 03:12:55;;;;;;;4.13;3.17;;;;;;;;;;5078021;28;20070;-76
2021/08/02 03:15:21;;;;;;;7.72;3.15;;;;;;;;;;5076427;28;20020;-76
2021/08/02 03:17:47;;;;;;;15.90;3.80;;;;;;;;;;5077173;28;20036;-76
2021/08/02 03:20:14;;;;;;;7.50;3.30;;;;;;;;;;5077037;28;20028;-76
2021/08/02 03:22:50;;;;;;;5.45;3.25;;;;;;;;;;5095456;28;20031;-76
2021/08/02 03:25:19;;;;;;;;;;;;;;;;;;5094421;28;20032;-76
2021/08/02 03:28:15;;;;;;;5.03;3.20;;;;;;;;;;5077242;28;19961;-76
2021/08/02 03:30:43;;;;;;;5.13;3.27;;;;;;;;;;5095149;28;20152;-76
2021/08/02 03:33:14;;;;;;;6.13;3.72;;;;;;;;;;5093579;28;20048;-77
2021/08/02 03:35:44;;;;;;;6.50;3.53;;;;;;;;;;5093787;28;20131;-76
2021/08/02 03:38:12;;;;;;;5.47;3.45;;;;;;;;;;5077211;28;20036;-76
2021/08/02 03:40:38;;;;;;;14.85;3.30;;;;;;;;;;5094804;28;20493;-76
2021/08/02 03:43:04;;;;;;;5.28;2.80;;;;;;;;;;5076794;28;20127;-76
2021/08/02 03:45:29;;;;;;;6.60;3.30;;;;;;;;;;5093737;28;20487;-76
2021/08/02 03:47:55;;;;;;;7.18;3.15;;;;;;;;;;5093697;28;20036;-76
2021/08/02 03:50:21;;;;;;;7.07;3.67;;;;;;;;;;5094809;28;20035;-76
2021/08/02 03:52:48;;;;;;;7.53;3.22;;;;;;;;;;5076549;28;20507;-76
2021/08/02 03:55:14;;;;;;;10.05;4.50;;;;;;;;;;5094141;28;20038;-76
2021/08/02 03:57:40;;;;;;;5.10;2.80;;;;;;;;;;5093336;28;20124;-76
2021/08/02 04:00:06;;;;;;;5.47;3.40;;;;;;;;;;5094315;28;20191;-76
2021/08/02 04:02:38;;;;;;;11.88;3.60;;;;;;;;;;5094400;28;20401;-76
2021/08/02 04:05:04;;;;;;;5.18;3.40;;;;;;;;;;5094160;28;20039;-76
2021/08/02 04:07:30;;;;;;;5.80;3.03;;;;;;;;;;5094438;28;20042;-76
2021/08/02 04:09:55;;;;;;;8.07;3.20;;;;;;;;;;5093385;28;20039;-76
2021/08/02 04:12:21;;;;;;;8.13;3.50;;;;;;;;;;5094089;28;20068;-76
2021/08/02 04:14:46;;;;;;;6.57;3.35;;;;;;;;;;5067560;28;20032;-76
2021/08/02 04:17:11;;;;;;;9.73;3.35;;;;;;;;;;5073924;28;20111;-76
2021/08/02 04:19:37;;;;;;;5.57;2.90;;;;;;;;;;5055697;28;20055;-76
2021/08/02 04:22:03;;;;;;;5.80;3.50;;;;;;;;;;5072408;28;20025;-76
2021/08/02 04:24:28;;;;;;;10.50;3.55;;;;;;;;;;5055497;28;20032;-77
2021/08/02 04:26:54;;;;;;;7.97;3.65;;;;;;;;;;5072871;28;20424;-77
2021/08/02 04:29:20;;;;;;;8.05;3.75;;;;;;;;;;5072520;28;20107;-76
2021/08/02 04:31:45;;;;;;;6.85;3.05;;;;;;;;;;5072705;28;20375;-76
2021/08/02 04:34:11;;;;;;;4.70;3.38;;;;;;;;;;5072292;28;20032;-76
2021/08/02 04:36:36;;;;;;;4.57;3.42;;;;;;;;;;5072477;28;20024;-76
2021/08/02 04:39:02;;;;;;;9.30;3.72;;;;;;;;;;5072254;28;20393;-76
2021/08/02 04:41:28;;;;;;;8.82;3.30;;;;;;;;;;5072324;28;20060;-77
2021/08/02 04:43:53;;;;;;;12.90;4.95;;;;;;;;;;5055458;28;20052;-76
2021/08/02 04:46:19;;;;;;;9.13;3.05;;;;;;;;;;5055558;28;20476;-77
2021/08/02 04:48:45;;;;;;;7.65;3.40;;;;;;;;;;5071967;28;20494;-76
2021/08/02 04:51:10;;;;;;;6.05;2.90;;;;;;;;;;5071949;28;20033;-76
2021/08/02 04:53:36;;;;;;;4.65;2.90;;;;;;;;;;5073294;28;20031;-77
2021/08/02 04:56:01;;;;;;;5.30;3.20;;;;;;;;;;5073204;28;20537;-76
2021/08/02 04:58:27;;;;;;;7.10;3.05;;;;;;;;;;5055878;28;20494;-76
2021/08/02 05:00:52;;;;;;;11.23;3.05;;;;;;;;;;5055348;28;20890;-76
2021/08/02 05:03:18;;;;;;;8.05;3.40;;;;;;;;;;5072022;28;20135;-77
2021/08/02 05:05:44;;;;;;;8.50;3.72;;;;;;;;;;5071008;28;20040;-76
2021/08/02 05:08:10;;;;;;;8.38;3.80;;;;;;;;;;5072393;28;20052;-77
2021/08/02 05:10:35;;;;;;;4.95;3.35;;;;;;;;;;5073132;28;20435;-77
2021/08/02 05:13:00;;;;;;;5.85;3.58;;;;;;;;;;5055303;28;20037;-77
2021/08/02 05:15:26;;;;;;;8.52;3.25;;;;;;;;;;5072988;28;20489;-77
2021/08/02 05:17:52;;;;;;;6.00;3.20;;;;;;;;;;5055264;28;20520;-77
2021/08/02 05:20:19;;;;;;;10.40;5.03;;;;;;;;;;5073301;28;20035;-77
2021/08/02 05:22:45;;;;;;;5.97;3.33;;;;;;;;;;5071938;28;20082;-77
2021/08/02 05:25:12;;;;;;;6.00;2.90;;;;;;;;;;5071565;28;20397;-76
2021/08/02 05:27:37;;;;;;;7.68;2.97;;;;;;;;;;5071747;28;20037;-77
2021/08/02 05:30:04;;;;;;;11.95;3.78;;;;;;;;;;5055012;28;20036;-76
2021/08/02 05:32:29;;;;;;;6.60;3.17;;;;;;;;;;5054905;28;20471;-76
2021/08/02 05:34:54;;;;;;;5.68;3.15;;;;;;;;;;5071758;28;20086;-76
2021/08/02 05:37:20;;;;;;;9.63;3.10;;;;;;;;;;5071682;28;20494;-77
2021/08/02 05:39:45;;;;;;;7.05;3.10;;;;;;;;;;5071685;28;20494;-77
2021/08/02 05:42:11;;;;;;;6.63;3.65;;;;;;;;;;5071419;28;20074;-76
2021/08/02 05:44:36;;;;;;;6.10;3.67;;;;;;;;;;5071355;28;20512;-77
2021/08/02 05:47:02;;;;;;;10.07;3.00;;;;;;;;;;5071700;28;20047;-76
2021/08/02 05:49:28;;;;;;;6.45;2.60;;;;;;;;;;5072203;28;20032;-77
2021/08/02 05:51:57;;;;;;;4.88;2.40;;;;;;;;;;5071469;28;20087;-76
2021/08/02 05:54:23;;;;;;;6.88;2.58;;;;;;;;;;5054629;28;20032;-76
2021/08/02 05:56:49;;;;;;;6.15;2.63;;;;;;;;;;5071491;28;20173;-76
2021/08/02 05:59:14;;;;;;;5.13;2.70;;;;;;;;;;5053742;28;20037;-76
2021/08/02 06:01:40;;;;;;;8.98;2.80;;;;;;;;;;5071286;28;20037;-76
2021/08/02 06:04:05;;;;;;;7.50;2.42;;;;;;;;;;5054730;28;20409;-76
2021/08/02 06:06:33;;;;;;;5.43;2.47;;;;;;;;;;5071223;28;20047;-76
2021/08/02 06:08:58;;;;;;;8.50;2.85;;;;;;;;;;5054669;28;20401;-77
2021/08/02 06:11:24;;;;;;;6.75;2.55;;;;;;;;;;5072664;28;20033;-76
2021/08/02 06:13:49;;;;;;;8.48;2.90;;;;;;;;;;5054381;28;20032;-76
2021/08/02 06:16:20;;;;;;;8.65;2.40;;;;;;;;;;5071201;28;20041;-76
2021/08/02 06:18:45;;;;;;;5.72;2.58;;;;;;;;;;5076233;28;20043;-77
2021/08/02 06:21:11;;;;;;;7.13;3.30;;;;;;;;;;5075072;28;20115;-77
2021/08/02 06:23:36;;;;;;;6.63;2.65;;;;;;;;;;5074886;28;20450;-77
2021/08/02 06:26:02;;;;;;;10.50;2.50;;;;;;;;;;5058108;28;20032;-76
2021/08/02 06:28:27;;;;;;;11.43;2.50;;;;;;;;;;5076227;28;20470;-76
2021/08/02 06:30:53;;;;;;;10.85;2.78;;;;;;;;;;5057454;28;20029;-77
2021/08/02 06:33:19;;;;;;;6.28;2.42;;;;;;;;;;5074955;28;20039;-76
2021/08/02 06:35:45;;;;;;;11.48;2.42;;;;;;;;;;5075772;28;20091;-77
2021/08/02 06:38:10;;;;;;;5.85;2.35;;;;;;;;;;5075868;28;20522;-77
2021/08/02 06:40:36;;;;;;;5.90;2.50;;;;;;;;;;5058106;28;20127;-77
2021/08/02 06:43:01;;;;;;;5.70;2.70;;;;;;;;;;5075902;28;20029;-76
2021/08/02 06:45:27;;;;;;;7.18;2.72;;;;;;;;;;5074660;28;20036;-76
2021/08/02 06:47:54;;;;;;;8.77;2.25;;;;;;;;;;5094524;28;20111;-76
2021/08/02 06:50:20;;;;;;;7.95;2.58;;;;;;;;;;5077905;28;20032;-76
2021/08/02 06:52:45;;;;;;;6.03;2.35;;;;;;;;;;5094540;28;20378;-77
2021/08/02 06:55:11;;;;;;;9.02;2.70;;;;;;;;;;5094555;28;20036;-77
2021/08/02 06:57:37;;;;;;;5.43;2.22;;;;;;;;;;5094483;28;20036;-77
2021/08/02 07:00:03;;;;;;;6.15;2.30;;;;;;;;;;5094387;28;20127;-76
2021/08/02 07:02:29;;;;;;;6.15;2.30;;;;;;;;;;5077954;28;20062;-76
2021/08/02 07:04:54;;;;;;;8.35;2.88;;;;;;;;;;5077363;28;20036;-76
2021/08/02 07:07:19;;;;;;;5.28;2.13;;;;;;;;;;5095710;28;20131;-77
2021/08/02 07:09:45;;;;;;;6.60;2.80;;;;;;;;;;5094258;28;20085;-77
2021/08/02 07:12:10;;;;;;;9.63;2.85;;;;;;;;;;5094507;28;20079;-76
2021/08/02 07:14:36;;;;;;;8.35;2.55;;;;;;;;;;5085801;28;20150;-76
2021/08/02 07:17:01;;;;;;;5.47;2.20;;;;;;;;;;5075023;28;20085;-76
2021/08/02 07:19:27;;;;;;;9.57;2.10;;;;;;;;;;5078390;28;20036;-81
2021/08/02 07:21:52;;;;;;;7.75;2.53;;;;;;;;;;5078784;28;20073;-83
2021/08/02 07:24:17;;;;;;;6.38;2.20;;;;;;;;;;5059682;28;20028;-76
2021/08/02 07:26:43;;;;;;;6.85;1.83;;;;;;;;;;5076889;28;20120;-81
2021/08/02 07:29:08;;;;;;;7.32;2.45;;;;;;;;;;5063581;28;20040;-80
2021/08/02 07:31:34;;;;;;;4.00;1.50;;;;;;;;;;5078373;28;20067;-82
2021/08/02 07:34:00;;;;;;;4.63;1.90;;;;;;;;;;5061500;28;20047;-78
2021/08/02 07:36:25;;;;;;;6.93;2.40;;;;;;;;;;5076231;28;20033;-79
2021/08/02 07:38:51;;;;;;;6.00;1.90;;;;;;;;;;5077601;28;20040;-82
2021/08/02 07:41:17;;;;;;;5.78;2.10;;;;;;;;;;5077530;28;20043;-80
2021/08/02 07:43:44;;;;;;;5.72;1.70;;;;;;;;;;5077643;28;20040;-81
2021/08/02 07:46:11;;;;;;;9.65;2.35;;;;;;;;;;5082600;28;20036;-77
2021/08/02 07:48:36;;;;;;;6.68;2.05;;;;;;;;;;5093855;28;20385;-77
2021/08/02 07:51:02;;;;;;;5.65;1.88;;;;;;;;;;5095029;28;20028;-76
2021/08/02 07:53:27;;;;;;;8.20;1.80;;;;;;;;;;5094485;28;20464;-76
2021/08/02 07:55:52;;;;;;;6.35;2.00;;;;;;;;;;5095190;28;20032;-77
2021/08/02 07:58:18;;;;;;;2.10;1.33;;;;;;;;;;5098108;28;20097;-78
2021/08/02 08:00:43;;;;;;;7.00;1.83;;;;;;;;;;5099130;28;20055;-79
2021/08/02 08:03:09;;;;;;;6.35;1.83;;;;;;;;;;5080544;28;20028;-79
2021/08/02 08:05:35;;;;;;;5.90;1.80;;;;;;;;;;5084366;28;20036;-79
2021/08/02 08:08:00;;;;;;;5.30;2.25;;;;;;;;;;5082230;28;20109;-78
2021/08/02 08:10:27;;;;;;;6.88;2.00;;;;;;;;;;5079097;28;20067;-78
2021/08/02 08:12:53;;;;;;;6.95;2.28;;;;;;;;;;5095857;28;20043;-79
2021/08/02 08:15:21;;;;;;;8.10;2.10;;;;;;;;;;5076122;28;20060;-77
2021/08/02 08:17:47;;;;;;;6.65;2.25;;;;;;;;;;5073486;28;20486;-78
2021/08/02 08:20:14;;;;;;;7.65;3.80;;;;;;;;;;5056490;28;20036;-77
2021/08/02 08:22:41;;;;;;;5.80;2.30;;;;;;;;;;5073315;28;20422;-77
2021/08/02 08:25:08;;;;;;;9.45;2.17;;;;;;;;;;5077048;28;20379;-80
2021/08/02 08:27:34;;;;;;;5.97;1.90;;;;;;;;;;5060604;28;20056;-80
2021/08/02 08:30:00;;;;;;;5.30;2.17;;;;;;;;;;5061194;28;20449;-80
2021/08/02 08:32:25;;;;;;;8.48;2.88;;;;;;;;;;5060831;28;20048;-80
2021/08/02 08:34:51;;;;;;;8.15;2.00;;;;;;;;;;5076960;28;20438;-80
2021/08/02 08:37:17;;;;;;;7.20;2.17;;;;;;;;;;5077804;28;20038;-80
2021/08/02 08:39:42;;;;;;;7.38;2.10;;;;;;;;;;5061170;28;20041;-80
2021/08/02 08:42:08;;;;;;;5.45;1.85;;;;;;;;;;5061745;28;20028;-80
2021/08/02 08:44:34;;;;;;;9.38;2.08;;;;;;;;;;5086911;28;20039;-80
2021/08/02 08:47:00;;;;;;;13.10;2.90;;;;;;;;;;5103590;28;20092;-84
2021/08/02 08:49:26;;;;;;;6.53;2.03;;;;;;;;;;5101135;28;20035;-82
2021/08/02 08:51:53;;;;;;;10.98;2.40;;;;;;;;;;5099742;28;20469;-83
2021/08/02 08:54:19;;;;;;;5.72;2.10;;;;;;;;;;5101461;28;20036;-83
2021/08/02 08:56:46;;;;;;;7.50;2.20;;;;;;;;;;5100503;28;20024;-83
2021/08/02 08:59:14;;;;;;;7.00;1.85;;;;;;;;;;5098073;28;20408;-84
2021/08/02 09:01:41;;;;;;;9.32;1.95;;;;;;;;;;5097730;28;20382;-84
2021/08/02 09:04:07;;;;;;;6.95;2.13;;;;;;;;;;5099026;28;20527;-82
2021/08/02 09:06:44;;;;;;;6.40;1.90;;;;;;;;;;5096892;28;20081;-83
2021/08/02 09:09:09;;;;;;;7.10;2.20;;;;;;;;;;5099714;28;20038;-84
2021/08/02 09:11:34;;;;;;;7.78;2.10;;;;;;;;;;5098345;28;20036;-85
2021/08/02 09:14:10;;;;;;;4.60;1.80;;;;;;;;;;5086398;28;20028;-84
2021/08/02 09:16:37;;;;;;;8.13;1.73;;;;;;;;;;5074786;28;20072;-85
2021/08/02 09:19:12;;;;;;;8.10;1.77;;;;;;;;;;5077619;28;20036;-84
2021/08/02 09:21:45;;;;;;;6.35;2.08;;;;;;;;;;5075884;28;20029;-84
2021/08/02 09:24:11;;;;;;;8.23;1.90;;;;;;;;;;5077043;28;20040;-84
2021/08/02 09:26:40;;;;;;;5.50;1.77;;;;;;;;;;5079848;28;20600;-82
2021/08/02 09:29:06;;;;;;;6.45;1.73;;;;;;;;;;5078640;28;20040;-83
2021/08/02 09:31:45;;;;;;;6.82;1.85;;;;;;;;;;5075936;28;20048;-75
2021/08/02 09:34:12;;;;;;;5.47;1.70;;;;;;;;;;5097292;28;20036;-83
2021/08/02 09:36:44;;;;;;;3.90;1.65;;;;;;;;;;5073740;28;20474;-78
2021/08/02 09:39:14;;;;;;;4.85;2.40;;;;;;;;;;5076299;28;20478;-79
2021/08/02 09:41:41;;;;;;;3.35;1.90;;;;;;;;;;5078234;28;20514;-82
2021/08/02 09:44:24;;;;;;;5.85;1.67;;;;;;;;;;5086850;28;20036;-82
2021/08/02 09:46:57;;;;;;;4.63;1.58;;;;;;;;;;5116750;28;20530;-83
2021/08/02 09:49:23;;;;;;;4.15;1.70;;;;;;;;;;5118042;28;20031;-80
2021/08/02 09:51:48;;;;;;;8.80;1.98;;;;;;;;;;5117311;28;20053;-80
2021/08/02 09:54:28;;;;;;;5.20;1.50;;;;;;;;;;5104458;28;20043;-82
2021/08/02 09:56:54;;;;;;;4.95;1.60;;;;;;;;;;5103596;28;20073;-79
2021/08/02 09:59:20;;;;;;;3.90;1.20;;;;;;;;;;5121617;28;20059;-81
2021/08/02 10:01:50;;;;;;;4.55;1.48;;;;;;;;;;5120966;28;20065;-82
2021/08/02 10:04:17;;;;;;;5.82;1.52;;;;;;;;;;5122418;28;20041;-81
2021/08/02 10:06:43;;;;;;;2.50;1.38;;;;;;;;;;5104196;28;20031;-78
2021/08/02 10:09:11;;;;;;;5.43;1.77;;;;;;;;;;5122026;28;20584;-81
2021/08/02 10:11:37;;;;;;;3.85;1.45;;;;;;;;;;5120075;28;20028;-82
2021/08/02 10:14:03;;;;;;;5.13;1.65;;;;;;;;;;5102957;28;20032;-84
2021/08/02 10:16:29;;;;;;;3.05;1.10;;;;;;;;;;5122130;28;20024;-87
2021/08/02 10:19:06;;;;;;;4.40;1.40;;;;;;;;;;5120176;28;20037;-84
2021/08/02 10:21:41;;;;;;;11.45;1.35;;;;;;;;;;5121932;28;20046;-84
2021/08/02 10:24:07;;;;;;;;;;;;;;;;;;5104002;28;20039;-83
2021/08/02 10:26:33;;;;;;;6.57;2.00;;;;;;;;;;5120504;28;19923;-81
2021/08/02 10:29:02;;;;;;;8.30;2.42;;;;;;;;;;5103484;28;20035;-80
2021/08/02 10:31:40;;;;;;;12.90;2.95;;;;;;;;;;5102138;28;20390;-76
2021/08/02 10:34:32;;;;;;;5.30;1.60;;;;;;;;;;5118768;28;20081;-79
2021/08/02 10:37:06;;;;;;;4.45;1.63;;;;;;;;;;5118497;28;20130;-82
2021/08/02 10:39:34;;;;;;;8.30;2.03;;;;;;;;;;5103352;28;20067;-80
2021/08/02 10:42:07;;;;;;;4.85;1.80;;;;;;;;;;5103793;28;20031;-84
2021/08/02 10:44:33;;;;;;;3.92;1.50;;;;;;;;;;5105232;28;20134;-83
2021/08/02 10:47:03;;;;;;;5.93;1.73;;;;;;;;;;5103975;28;20059;-81
2021/08/02 10:49:29;;;;;;;5.13;1.52;;;;;;;;;;5103305;28;20114;-81
2021/08/02 10:51:55;;;;;;;4.15;1.75;;;;;;;;;;5120300;27;20043;-80
2021/08/02 10:54:21;;;;;;;3.88;1.63;;;;;;;;;;5103152;28;20409;-80
2021/08/02 10:56:51;;;;;;;2.58;1.10;;;;;;;;;;5119647;28;20028;-81
2021/08/02 10:59:21;;;;;;;2.45;1.48;;;;;;;;;;5119563;27;20097;-80
2021/08/02 11:01:54;;;;;;;3.25;1.35;;;;;;;;;;5120549;28;20114;-84
2021/08/02 11:04:21;;;;;;;3.13;1.42;;;;;;;;;;5100406;28;20122;-83
2021/08/02 11:06:48;;;;;;;2.92;1.38;;;;;;;;;;5101176;28;20059;-83
2021/08/02 11:09:15;;;;;;;3.70;1.50;;;;;;;;;;5121264;28;20028;-83
2021/08/02 11:11:41;;;;;;;1.13;0.95;;;;;;;;;;5104555;28;20040;-83
2021/08/02 11:14:21;;;;;;;3.70;1.38;;;;;;;;;;5121742;28;20027;-83
2021/08/02 11:16:51;;;;;;;7.05;1.55;;;;;;;;;;5089619;28;20028;-83
2021/08/02 11:19:29;;;;;;;3.03;1.10;;;;;;;;;;5101943;28;20378;-83
2021/08/02 11:22:06;;;;;;;2.30;1.20;;;;;;;;;;5101117;28;20091;-83
2021/08/02 11:24:37;;;;;;;2.83;1.20;;;;;;;;;;5101613;28;20079;-83
2021/08/02 11:27:05;;;;;;;3.10;1.20;;;;;;;;;;5083193;28;20044;-83
2021/08/02 11:29:33;;;;;;;1.65;0.95;;;;;;;;;;5083746;28;20622;-83
2021/08/02 11:32:04;;;;;;;1.92;0.95;;;;;;;;;;5101220;28;20574;-83
2021/08/02 11:34:31;;;;;;;2.38;1.23;;;;;;;;;;5085091;28;20040;-83
2021/08/02 11:37:01;;;;;;;4.28;1.40;;;;;;;;;;5084702;28;20168;-83
2021/08/02 11:39:27;;;;;;;2.45;1.40;;;;;;;;;;5084916;28;20082;-83
2021/08/02 11:42:04;;;;;;;7.15;1.65;;;;;;;;;;5084050;28;20020;-83
2021/08/02 11:44:31;;;;;;;2.60;1.20;;;;;;;;;;5099510;28;20028;-82
2021/08/02 11:46:56;;;;;;;2.45;1.42;;;;;;;;;;5079138;28;20024;-82
2021/08/02 11:49:23;;;;;;;2.97;1.33;;;;;;;;;;5079189;28;20401;-83
2021/08/02 11:51:49;;;;;;;3.03;1.40;;;;;;;;;;5078709;28;20093;-83
2021/08/02 11:54:24;;;;;;;2.80;1.30;;;;;;;;;;5078531;28;20146;-83
2021/08/02 11:56:50;;;;;;;3.08;1.30;;;;;;;;;;5078331;28;20043;-82
2021/08/02 11:59:26;;;;;;;5.72;1.50;;;;;;;;;;5062257;28;20037;-82
2021/08/02 12:01:56;;;;;;;4.30;1.33;;;;;;;;;;5060611;28;20131;-82
2021/08/02 12:04:23;;;;;;;4.13;1.30;;;;;;;;;;5062824;28;20051;-83
2021/08/02 12:06:55;;;;;;;3.63;1.30;;;;;;;;;;5079703;28;20039;-83
2021/08/02 12:09:35;;;;;;;4.30;1.20;;;;;;;;;;5099555;28;20480;-83
2021/08/02 12:12:02;;;;;;;1.70;1.05;;;;;;;;;;5064193;28;20036;-82
2021/08/02 12:14:30;;;;;;;8.23;1.27;;;;;;;;;;5086408;28;20063;-83
2021/08/02 12:17:07;;;;;;;4.85;1.63;;;;;;;;;;5120601;28;20031;-82
2021/08/02 12:19:50;;;;;;;1.40;0.90;;;;;;;;;;5102312;28;20028;-82
2021/08/02 12:22:17;;;;;;;5.18;1.40;;;;;;;;;;5102860;28;20040;-82
2021/08/02 12:24:49;;;;;;;2.85;1.23;;;;;;;;;;5102639;28;20039;-82
2021/08/02 12:27:17;;;;;;;3.05;1.20;;;;;;;;;;5102126;28;20036;-82
2021/08/02 12:29:43;;;;;;;2.60;1.00;;;;;;;;;;5102212;28;20031;-82
2021/08/02 12:32:08;;;;;;;2.53;1.38;;;;;;;;;;5119135;28;20075;-82
2021/08/02 12:34:37;;;;;;;2.95;1.38;;;;;;;;;;5102343;28;20542;-82
2021/08/02 12:37:02;;;;;;;3.13;1.10;;;;;;;;;;5102312;28;20042;-83
2021/08/02 12:39:31;;;;;;;2.72;1.00;;;;;;;;;;5102467;28;20404;-82
2021/08/02 12:41:56;;;;;;;3.25;1.23;;;;;;;;;;5119181;28;20035;-82
2021/08/02 12:44:22;;;;;;;2.28;1.00;;;;;;;;;;5102412;28;20126;-82
2021/08/02 12:46:48;;;;;;;5.63;1.33;;;;;;;;;;5100809;28;20151;-82
2021/08/02 12:49:13;;;;;;;7.47;1.77;;;;;;;;;;5118133;28;20108;-82
2021/08/02 12:51:39;;;;;;;1.80;1.02;;;;;;;;;;5117979;28;20126;-82
2021/08/02 12:54:05;;;;;;;2.67;1.20;;;;;;;;;;5101372;28;20028;-82
2021/08/02 12:56:30;;;;;;;4.30;1.10;;;;;;;;;;5100782;28;20049;-82
2021/08/02 12:58:56;;;;;;;4.45;1.17;;;;;;;;;;5101134;28;20054;-80
2021/08/02 13:01:22;;;;;;;2.67;1.33;;;;;;;;;;5116890;28;20035;-79
2021/08/02 13:03:48;;;;;;;5.38;1.10;;;;;;;;;;5100278;28;20037;-79
2021/08/02 13:06:15;;;;;;;3.20;1.30;;;;;;;;;;5117476;28;20036;-79
2021/08/02 13:08:41;;;;;;;4.65;1.50;;;;;;;;;;5101862;28;20035;-80
2021/08/02 13:11:06;;;;;;;3.08;1.23;;;;;;;;;;5101419;28;20516;-80
2021/08/02 13:13:32;;;;;;;5.38;1.25;;;;;;;;;;5100756;28;20122;-79
2021/08/02 13:15:58;;;;;;;2.85;1.20;;;;;;;;;;5081711;28;20032;-79
2021/08/02 13:18:24;;;;;;;4.47;1.20;;;;;;;;;;5060445;28;20036;-80
2021/08/02 13:20:50;;;;;;;3.15;1.10;;;;;;;;;;5060202;28;20044;-80
2021/08/02 13:28:35;;;;;;;2.90;1.40;;;;;;;;;;5080625;28;20037;-80
2021/08/02 13:31:01;;;;;;;3.38;1.17;;;;;;;;;;5080572;28;20044;-80
2021/08/02 13:33:26;;;;;;;2.58;1.10;;;;;;;;;;5080864;28;20047;-79
2021/08/02 13:35:52;;;;;;;3.83;1.17;;;;;;;;;;5063671;28;20032;-80
2021/08/02 13:38:17;;;;;;;1.73;0.90;;;;;;;;;;5079914;28;20068;-80
2021/08/02 13:40:42;;;;;;;3.45;1.30;;;;;;;;;;5081065;28;20075;-80
2021/08/02 13:43:08;;;;;;;3.10;1.25;;;;;;;;;;5062791;28;20040;-79
2021/08/02 13:45:37;;;;;;;2.75;1.20;;;;;;;;;;5085908;28;20036;-79
2021/08/02 13:48:06;;;;;;;3.10;1.15;;;;;;;;;;5100099;28;20030;-79
2021/08/02 13:50:32;;;;;;;2.60;1.02;;;;;;;;;;5099456;28;20092;-79
2021/08/02 13:52:57;;;;;;;1.60;0.75;;;;;;;;;;5099778;28;20115;-79
2021/08/02 13:55:23;;;;;;;0.90;0.80;;;;;;;;;;5101342;28;20498;-79
2021/08/02 13:57:49;;;;;;;2.00;1.00;;;;;;;;;;5099950;28;20035;-80
2021/08/02 14:00:15;;;;;;;2.25;0.77;;;;;;;;;;5101261;28;20036;-79
2021/08/02 14:02:41;;;;;;;4.45;1.27;;;;;;;;;;5102012;28;20044;-79
2021/08/02 14:05:08;;;;;;;2.70;1.20;;;;;;;;;;5100215;28;20056;-80
2021/08/02 14:07:34;;;;;;;2.67;0.98;;;;;;;;;;5100686;28;20028;-80
2021/08/02 14:09:59;;;;;;;2.90;1.20;;;;;;;;;;5100953;28;20504;-79
2021/08/02 14:12:35;;;;;;;9.35;2.40;;;;;;;;;;5084000;28;20036;-80
2021/08/02 14:15:07;;;;;;;;;;;;;;;;;;5100335;28;20032;-80
2021/08/02 14:17:41;;;;;;;1.98;1.00;;;;;;;;;;5099361;28;19912;-80
2021/08/02 14:20:06;;;;;;;8.13;1.58;;;;;;;;;;5101434;28;20028;-80
2021/08/02 14:22:32;;;;;;;2.95;1.20;;;;;;;;;;5100124;28;20085;-81
2021/08/02 14:24:59;;;;;;;6.45;1.00;;;;;;;;;;5100682;28;20089;-80
2021/08/02 14:27:24;;;;;;;1.67;1.00;;;;;;;;;;5101509;28;20074;-80
2021/08/02 14:29:51;;;;;;;4.50;0.75;;;;;;;;;;5100625;28;20444;-79
2021/08/02 14:32:17;;;;;;;1.48;0.80;;;;;;;;;;5099868;28;20048;-81
2021/08/02 14:34:42;;;;;;;4.05;1.00;;;;;;;;;;5099113;28;20038;-79
2021/08/02 14:37:08;;;;;;;2.35;1.05;;;;;;;;;;5098940;28;20494;-79
2021/08/02 14:39:47;;;;;;;2.15;0.95;;;;;;;;;;5099205;28;20032;-79
2021/08/02 14:42:14;;;;;;;4.60;1.10;;;;;;;;;;5098815;28;20035;-78
2021/08/02 14:44:41;;;;;;;4.85;1.00;;;;;;;;;;5072488;28;20040;-79
2021/08/02 14:47:10;;;;;;;6.00;1.20;;;;;;;;;;5079702;28;20482;-80
2021/08/02 14:49:46;;;;;;;3.38;1.10;;;;;;;;;;5078411;28;20494;-79
2021/08/02 14:52:14;;;;;;;1.65;0.90;;;;;;;;;;5078695;28;20036;-79
2021/08/02 14:54:44;;;;;;;5.10;1.15;;;;;;;;;;5077916;28;20036;-78